createdAt,value
2018-07-03T00:00:37.648Z,17.80
2018-07-03T00:03:06.048Z,17.70
2018-07-03T00:05:34.441Z,17.70
2018-07-03T00:08:02.846Z,17.70
2018-07-03T00:10:31.257Z,17.70
2018-07-03T00:12:59.659Z,17.70
2018-07-03T00:17:56.062Z,17.70
2018-07-03T00:20:24.445Z,17.80
2018-07-03T00:22:52.789Z,17.80
2018-07-03T00:25:21.259Z,17.70
2018-07-03T00:27:49.608Z,17.70
2018-07-03T00:30:17.952Z,17.70
2018-07-03T00:32:46.346Z,17.60
2018-07-03T00:35:14.689Z,17.60
2018-07-03T00:37:43.739Z,17.50
2018-07-03T00:40:12.093Z,17.50
2018-07-03T00:42:40.423Z,17.50
2018-07-03T00:45:08.783Z,17.40
2018-07-03T00:47:37.175Z,17.40
2018-07-03T00:50:05.533Z,17.40
2018-07-03T00:52:33.873Z,17.40
2018-07-03T00:55:02.243Z,17.30
2018-07-03T00:57:30.721Z,17.30
2018-07-03T01:00:10.199Z,17.30
2018-07-03T01:02:38.694Z,17.20
2018-07-03T01:05:07.205Z,17.20
2018-07-03T01:07:35.532Z,17.10
2018-07-03T01:10:05.174Z,17.10
2018-07-03T01:12:33.560Z,17.10
2018-07-03T01:15:02.179Z,17.10
2018-07-03T01:17:30.636Z,17.10
2018-07-03T01:19:59.018Z,17.10
2018-07-03T01:22:27.425Z,17.00
2018-07-03T01:24:55.909Z,16.90
2018-07-03T01:27:24.355Z,16.90
2018-07-03T01:29:52.720Z,16.80
2018-07-03T01:32:21.708Z,16.70
2018-07-03T01:34:50.146Z,16.70
2018-07-03T01:37:18.655Z,16.70
2018-07-03T01:39:47.000Z,16.60
2018-07-03T01:42:15.935Z,16.60
2018-07-03T01:44:44.678Z,16.50
2018-07-03T01:47:13.009Z,16.50
2018-07-03T01:49:41.370Z,16.50
2018-07-03T01:52:09.700Z,16.50
2018-07-03T01:54:38.054Z,16.50
2018-07-03T01:57:07.118Z,16.60
2018-07-03T01:59:35.437Z,16.70
2018-07-03T02:02:04.158Z,16.70
2018-07-03T02:07:00.610Z,16.70
2018-07-03T02:09:28.958Z,16.70
2018-07-03T02:11:57.400Z,16.70
2018-07-03T02:14:25.932Z,16.60
2018-07-03T02:16:54.273Z,16.60
2018-07-03T02:24:18.922Z,16.40
2018-07-03T02:26:47.257Z,16.40
2018-07-03T02:29:15.578Z,16.40
2018-07-03T02:31:43.951Z,16.30
2018-07-03T02:34:12.867Z,16.30
2018-07-03T02:36:41.205Z,16.20
2018-07-03T02:39:10.780Z,16.20
2018-07-03T02:44:07.788Z,16.20
2018-07-03T02:46:36.146Z,16.10
2018-07-03T02:49:04.572Z,16.10
2018-07-03T02:51:32.900Z,16.00
2018-07-03T02:54:01.267Z,16.00
2018-07-03T02:56:29.719Z,16.00
2018-07-03T02:58:58.083Z,16.00
2018-07-03T03:01:26.451Z,15.90
2018-07-03T03:03:54.803Z,15.90
2018-07-03T03:06:23.284Z,15.90
2018-07-03T03:08:51.652Z,15.90
2018-07-03T03:11:22.874Z,15.90
2018-07-03T03:13:53.276Z,15.90
2018-07-03T03:16:21.627Z,15.90
2018-07-03T03:18:50.037Z,15.90
2018-07-03T03:21:18.511Z,15.80
2018-07-03T03:23:46.852Z,15.70
2018-07-03T03:26:15.310Z,15.70
2018-07-03T03:28:43.726Z,15.60
2018-07-03T03:31:12.072Z,15.60
2018-07-03T03:36:08.481Z,15.50
2018-07-03T03:38:37.466Z,15.50
2018-07-03T03:41:05.990Z,15.50
2018-07-03T03:43:34.441Z,15.60
2018-07-03T03:46:02.838Z,15.60
2018-07-03T03:48:31.199Z,15.60
2018-07-03T03:50:59.577Z,15.70
2018-07-03T03:53:27.996Z,15.70
2018-07-03T03:55:56.367Z,15.60
2018-07-03T03:58:24.756Z,15.60
2018-07-03T04:00:53.158Z,15.70
2018-07-03T04:03:21.462Z,15.70
2018-07-03T04:08:24.622Z,15.60
2018-07-03T04:10:52.958Z,15.70
2018-07-03T04:13:21.315Z,15.70
2018-07-03T04:15:49.850Z,15.70
2018-07-03T04:18:23.773Z,15.80
2018-07-03T04:20:52.768Z,15.80
2018-07-03T04:23:21.110Z,15.80
2018-07-03T04:25:49.468Z,15.90
2018-07-03T04:28:17.809Z,15.90
2018-07-03T04:30:46.144Z,15.90
2018-07-03T04:33:14.546Z,16.00
2018-07-03T04:35:43.041Z,16.00
2018-07-03T04:38:11.482Z,16.00
2018-07-03T04:40:39.860Z,16.10
2018-07-03T04:43:08.205Z,16.10
2018-07-03T04:45:36.582Z,16.20
2018-07-03T04:48:04.947Z,16.20
2018-07-03T04:50:33.306Z,16.20
2018-07-03T04:53:01.699Z,16.30
2018-07-03T04:55:30.090Z,16.30
2018-07-03T04:57:58.700Z,16.30
2018-07-03T05:00:27.058Z,16.40
2018-07-03T05:02:55.406Z,16.40
2018-07-03T05:05:23.920Z,16.40
2018-07-03T05:07:52.298Z,16.40
2018-07-03T05:10:20.749Z,16.50
2018-07-03T05:15:17.344Z,16.50
2018-07-03T05:17:46.330Z,16.60
2018-07-03T05:20:14.670Z,16.70
2018-07-03T05:22:43.034Z,16.70
2018-07-03T05:25:11.403Z,16.80
2018-07-03T05:27:39.736Z,16.80
2018-07-03T05:30:08.446Z,16.90
2018-07-03T05:32:36.811Z,17.00
2018-07-03T05:35:05.406Z,17.00
2018-07-03T05:37:33.767Z,17.10
2018-07-03T05:40:02.128Z,17.20
2018-07-03T05:42:30.566Z,17.30
2018-07-03T05:44:58.954Z,17.30
2018-07-03T05:47:27.335Z,17.40
2018-07-03T05:49:55.708Z,17.50
2018-07-03T05:52:24.749Z,17.60
2018-07-03T05:54:53.261Z,17.70
2018-07-03T05:57:21.644Z,17.80
2018-07-03T05:59:50.046Z,17.90
2018-07-03T06:02:18.402Z,17.90
2018-07-03T06:04:47.124Z,18.00
2018-07-03T06:07:16.152Z,18.10
2018-07-03T06:09:44.490Z,18.20
2018-07-03T06:12:12.883Z,18.30
2018-07-03T06:14:41.244Z,18.30
2018-07-03T06:17:09.752Z,18.40
2018-07-03T06:22:06.354Z,18.60
2018-07-03T06:24:35.640Z,18.70
2018-07-03T06:27:04.005Z,18.80
2018-07-03T06:29:32.368Z,18.80
2018-07-03T06:32:00.724Z,18.90
2018-07-03T06:34:29.100Z,19.00
2018-07-03T06:36:57.449Z,19.00
2018-07-03T06:39:26.336Z,19.10
2018-07-03T06:41:54.814Z,19.20
2018-07-03T06:44:23.967Z,19.30
2018-07-03T06:46:52.292Z,19.40
2018-07-03T06:49:20.701Z,19.50
2018-07-03T06:51:49.173Z,19.60
2018-07-03T06:54:24.164Z,19.70
2018-07-03T06:56:52.499Z,19.80
2018-07-03T06:59:20.862Z,19.80
2018-07-03T07:01:49.206Z,20.00
2018-07-03T07:04:17.646Z,20.10
2018-07-03T07:06:46.029Z,20.20
2018-07-03T07:09:14.480Z,20.20
2018-07-03T07:11:42.904Z,20.40
2018-07-03T07:14:11.462Z,20.50
2018-07-03T07:16:39.799Z,20.50
2018-07-03T07:19:08.148Z,20.70
2018-07-03T07:21:36.542Z,20.90
2018-07-03T07:24:05.232Z,20.90
2018-07-03T07:26:34.405Z,21.00
2018-07-03T07:29:03.509Z,21.10
2018-07-03T07:31:31.886Z,21.30
2018-07-03T07:34:00.244Z,21.40
2018-07-03T07:36:28.656Z,21.50
2018-07-03T07:38:57.003Z,21.60
2018-07-03T07:41:26.038Z,21.70
2018-07-03T07:43:54.408Z,21.80
2018-07-03T07:46:23.357Z,22.00
2018-07-03T07:51:19.908Z,22.10
2018-07-03T07:53:48.267Z,22.20
2018-07-03T07:56:16.618Z,22.30
2018-07-03T07:58:44.952Z,22.40
2018-07-03T08:01:13.325Z,22.50
2018-07-03T08:03:41.659Z,22.50
2018-07-03T08:06:10.045Z,22.60
2018-07-03T08:08:38.409Z,22.80
2018-07-03T08:11:06.742Z,22.90
2018-07-03T08:13:35.237Z,23.00
2018-07-03T08:16:03.622Z,23.10
2018-07-03T08:18:32.533Z,23.10
2018-07-03T08:21:01.711Z,23.20
2018-07-03T08:23:30.147Z,23.40
2018-07-03T08:25:58.513Z,23.40
2018-07-03T08:28:26.868Z,23.60
2018-07-03T08:30:55.263Z,23.70
2018-07-03T08:33:23.652Z,23.90
2018-07-03T08:35:52.045Z,24.10
2018-07-03T08:38:20.400Z,24.20
2018-07-03T08:40:49.475Z,24.30
2018-07-03T08:43:17.853Z,24.50
2018-07-03T08:45:46.313Z,24.70
2018-07-03T08:48:14.627Z,24.80
2018-07-03T08:50:42.959Z,25.00
2018-07-03T08:53:11.323Z,25.10
2018-07-03T08:55:39.697Z,25.10
2018-07-03T08:58:08.060Z,25.10
2018-07-03T09:00:36.531Z,25.20
2018-07-03T09:03:04.992Z,25.40
2018-07-03T09:05:33.346Z,25.50
2018-07-03T09:08:01.699Z,25.60
2018-07-03T09:12:58.191Z,25.90
2018-07-03T09:15:26.562Z,26.00
2018-07-03T09:17:55.004Z,26.20
2018-07-03T09:20:23.305Z,26.30
2018-07-03T09:22:51.715Z,26.60
2018-07-03T09:25:20.065Z,26.90
2018-07-03T09:27:48.464Z,27.00
2018-07-03T09:30:16.842Z,27.20
2018-07-03T09:32:45.292Z,27.40
2018-07-03T09:35:13.900Z,27.60
2018-07-03T09:37:42.261Z,27.80
2018-07-03T09:42:38.757Z,27.90
2018-07-03T09:45:07.904Z,28.20
2018-07-03T09:47:36.311Z,28.40
2018-07-03T09:50:04.921Z,28.70
2018-07-03T09:52:33.327Z,28.80
2018-07-03T09:55:01.813Z,28.70
2018-07-03T09:57:30.103Z,28.60
2018-07-03T09:59:59.195Z,28.60
2018-07-03T10:04:55.701Z,28.70
2018-07-03T10:07:24.111Z,28.80
2018-07-03T10:09:52.523Z,29.10
2018-07-03T10:12:20.972Z,29.40
2018-07-03T10:14:49.370Z,29.40
2018-07-03T10:17:17.742Z,29.70
2018-07-03T10:19:46.212Z,29.90
2018-07-03T10:22:14.559Z,30.10
2018-07-03T10:24:42.926Z,30.20
2018-07-03T10:27:11.292Z,30.30
2018-07-03T10:29:39.662Z,30.10
2018-07-03T10:32:08.091Z,30.00
2018-07-03T10:34:36.461Z,29.90
2018-07-03T10:37:04.922Z,29.80
2018-07-03T10:39:33.276Z,29.60
2018-07-03T10:42:01.631Z,29.50
2018-07-03T10:49:26.192Z,29.40
2018-07-03T10:51:54.524Z,29.20
2018-07-03T10:56:51.270Z,28.90
2018-07-03T10:59:19.632Z,29.10
2018-07-03T11:01:48.742Z,29.10
2018-07-03T11:04:17.618Z,29.20
2018-07-03T11:06:45.996Z,29.10
2018-07-03T11:09:14.398Z,28.80
2018-07-03T11:11:42.737Z,28.60
2018-07-03T11:14:11.207Z,28.60
2018-07-03T11:16:39.574Z,28.80
2018-07-03T11:19:07.995Z,28.90
2018-07-03T11:21:36.364Z,29.10
2018-07-03T11:24:05.485Z,29.30
2018-07-03T11:29:02.040Z,30.00
2018-07-03T11:31:30.361Z,29.80
2018-07-03T11:33:58.833Z,29.70
2018-07-03T11:36:27.163Z,29.60
2018-07-03T11:38:55.564Z,29.40
2018-07-03T11:43:52.244Z,28.80
2018-07-03T11:46:20.676Z,28.60
2018-07-03T11:48:49.080Z,28.60
2018-07-03T11:53:45.780Z,28.30
2018-07-03T11:56:14.164Z,28.80
2018-07-03T11:58:43.156Z,29.00
2018-07-03T12:01:11.531Z,29.10
2018-07-03T12:03:39.920Z,29.50
2018-07-03T12:06:08.287Z,29.60
2018-07-03T12:08:36.736Z,29.80
2018-07-03T12:11:05.269Z,29.50
2018-07-03T12:16:08.508Z,30.10
2018-07-03T12:18:42.152Z,30.10
2018-07-03T12:21:10.576Z,30.30
2018-07-03T12:23:39.018Z,30.50
2018-07-03T12:26:07.381Z,30.90
2018-07-03T12:28:36.369Z,31.10
2018-07-03T12:33:32.988Z,31.30
2018-07-03T12:36:01.371Z,31.40
2018-07-03T12:38:30.300Z,30.80
2018-07-03T12:40:58.802Z,31.20
2018-07-03T12:43:27.269Z,31.20
2018-07-03T12:45:55.666Z,31.10
2018-07-03T12:48:24.046Z,30.90
2018-07-03T12:50:52.432Z,30.60
2018-07-03T12:53:20.952Z,30.80
2018-07-03T12:55:49.356Z,30.90
2018-07-03T12:58:17.808Z,30.60
2018-07-03T13:00:46.781Z,31.10
2018-07-03T13:03:15.171Z,31.20
2018-07-03T13:05:43.576Z,31.50
2018-07-03T13:15:36.405Z,31.40
2018-07-03T13:18:10.380Z,31.70
2018-07-03T13:23:06.826Z,31.90
2018-07-03T13:28:03.245Z,32.40
2018-07-03T13:30:31.635Z,32.50
2018-07-03T13:33:00.038Z,32.30
2018-07-03T13:37:56.905Z,31.90
2018-07-03T13:40:26.073Z,31.90
2018-07-03T13:42:54.788Z,31.90
2018-07-03T13:47:52.075Z,31.20
2018-07-03T13:50:29.624Z,31.10
2018-07-03T13:52:58.641Z,31.00
2018-07-03T13:55:27.216Z,30.80
2018-07-03T13:57:55.583Z,30.80
2018-07-03T14:00:24.006Z,31.00
2018-07-03T14:02:52.375Z,30.90
2018-07-03T14:05:20.912Z,30.60
2018-07-03T14:07:49.320Z,30.80
2018-07-03T14:12:45.784Z,31.10
2018-07-03T14:15:14.259Z,31.20
2018-07-03T14:17:42.687Z,31.10
2018-07-03T14:20:11.104Z,30.80
2018-07-03T14:22:39.560Z,31.20
2018-07-03T14:25:08.037Z,31.60
2018-07-03T14:27:36.453Z,31.90
2018-07-03T14:30:05.433Z,31.80
2018-07-03T14:32:34.469Z,31.10
2018-07-03T14:35:02.835Z,30.70
2018-07-03T14:37:31.280Z,30.70
2018-07-03T14:39:59.726Z,30.60
2018-07-03T14:42:28.164Z,30.60
2018-07-03T14:49:52.837Z,31.00
2018-07-03T14:52:21.223Z,31.10
2018-07-03T14:54:49.895Z,30.70
2018-07-03T14:57:18.308Z,31.20
2018-07-03T14:59:47.302Z,31.60
2018-07-03T15:02:15.782Z,31.60
2018-07-03T15:04:44.073Z,31.70
2018-07-03T15:07:12.606Z,32.00
2018-07-03T15:09:41.017Z,32.10
2018-07-03T15:12:09.466Z,32.20
2018-07-03T15:14:37.989Z,32.10
2018-07-03T15:17:06.582Z,32.10
2018-07-03T15:19:40.279Z,32.00
2018-07-03T15:22:11.355Z,32.30
2018-07-03T15:30:27.953Z,32.70
2018-07-03T15:32:56.503Z,32.20
2018-07-03T15:35:26.109Z,32.10
2018-07-03T15:40:25.032Z,31.40
2018-07-03T15:42:53.455Z,31.40
2018-07-03T15:47:50.051Z,31.00
2018-07-03T15:50:18.673Z,31.00
2018-07-03T15:52:47.105Z,30.80
2018-07-03T15:55:15.969Z,30.80
2018-07-03T16:00:14.623Z,31.30
2018-07-03T16:05:48.643Z,31.50
2018-07-03T16:09:21.934Z,31.50
2018-07-03T16:11:51.517Z,31.60
2018-07-03T16:14:19.870Z,31.70
2018-07-03T16:16:48.268Z,31.80
2018-07-03T16:19:21.919Z,31.70
2018-07-03T16:21:50.368Z,31.50
2018-07-03T16:24:18.735Z,31.60
2018-07-03T16:29:15.194Z,31.40
2018-07-03T16:31:43.559Z,31.70
2018-07-03T16:41:38.793Z,32.00
2018-07-03T16:44:07.563Z,32.10
2018-07-03T16:46:35.915Z,32.20
2018-07-03T16:49:04.297Z,32.00
2018-07-03T16:51:32.674Z,32.00
2018-07-03T16:54:01.023Z,32.00
2018-07-03T16:56:29.665Z,32.00
2018-07-03T16:58:58.031Z,32.10
2018-07-03T17:01:26.366Z,31.90
2018-07-03T17:03:54.750Z,32.00
2018-07-03T17:06:23.164Z,32.00
2018-07-03T17:08:51.696Z,31.80
2018-07-03T17:13:48.305Z,31.70
2018-07-03T17:16:17.216Z,31.70
2018-07-03T17:18:50.748Z,31.60
2018-07-03T17:21:19.165Z,31.60
2018-07-03T17:23:47.597Z,31.20
2018-07-03T17:26:15.982Z,31.30
2018-07-03T17:28:44.405Z,31.20
2018-07-03T17:31:12.799Z,31.20
2018-07-03T17:33:41.209Z,31.20
2018-07-03T17:36:10.568Z,31.20
2018-07-03T17:38:38.977Z,31.10
2018-07-03T17:41:18.710Z,30.90
2018-07-03T17:44:09.388Z,30.70
2018-07-03T17:46:37.776Z,30.40
2018-07-03T17:49:06.160Z,30.20
2018-07-03T17:51:34.591Z,30.00
2018-07-03T17:54:03.037Z,29.60
2018-07-03T17:56:31.428Z,29.50
2018-07-03T17:59:00.207Z,29.30
2018-07-03T18:01:28.636Z,29.20
2018-07-03T18:03:57.203Z,29.00
2018-07-03T18:08:53.683Z,28.60
2018-07-03T18:11:22.288Z,28.40
2018-07-03T18:13:50.722Z,28.30
2018-07-03T18:16:19.648Z,28.20
2018-07-03T18:18:53.378Z,28.10
2018-07-03T18:21:21.739Z,28.00
2018-07-03T18:23:50.158Z,27.70
2018-07-03T18:26:18.555Z,27.60
2018-07-03T18:28:46.912Z,27.50
2018-07-03T18:31:15.332Z,27.40
2018-07-03T18:33:43.728Z,27.40
2018-07-03T18:36:12.191Z,27.30
2018-07-03T18:38:40.554Z,27.20
2018-07-03T18:41:08.932Z,27.10
2018-07-03T18:43:37.482Z,27.00
2018-07-03T18:46:06.124Z,26.80
2018-07-03T18:48:34.512Z,26.70
2018-07-03T18:51:02.934Z,26.50
2018-07-03T18:53:31.900Z,26.40
2018-07-03T18:56:00.296Z,26.20
2018-07-03T18:58:28.700Z,26.00
2018-07-03T19:00:57.092Z,25.90
2018-07-03T19:03:25.566Z,25.80
2018-07-03T19:05:54.032Z,25.60
2018-07-03T19:10:50.690Z,25.40
2018-07-03T19:13:19.070Z,25.20
2018-07-03T19:15:47.499Z,25.20
2018-07-03T19:18:15.972Z,25.00
2018-07-03T19:20:44.484Z,24.90
2018-07-03T19:23:12.899Z,24.80
2018-07-03T19:25:41.280Z,24.80
2018-07-03T19:28:09.816Z,24.70
2018-07-03T19:30:38.190Z,24.60
2018-07-03T19:33:06.620Z,24.40
2018-07-03T19:35:35.009Z,24.30
2018-07-03T19:38:03.565Z,24.20
2018-07-03T19:40:31.868Z,24.00
2018-07-03T19:43:37.716Z,24.00
2018-07-03T19:46:06.591Z,23.90
2018-07-03T19:48:35.148Z,23.80
2018-07-03T19:51:03.679Z,23.60
2018-07-03T19:53:32.020Z,23.50
2018-07-03T19:56:00.682Z,23.50
2018-07-03T19:58:29.092Z,23.40
2018-07-03T20:00:57.588Z,23.30
2018-07-03T20:03:26.856Z,23.20
2018-07-03T20:05:55.271Z,23.10
2018-07-03T20:08:23.688Z,23.00
2018-07-03T20:10:52.031Z,22.90
2018-07-03T20:13:20.684Z,22.80
2018-07-03T20:15:49.132Z,22.70
2018-07-03T20:18:17.502Z,22.60
2018-07-03T20:20:45.868Z,22.60
2018-07-03T20:23:14.242Z,22.50
2018-07-03T20:25:42.732Z,22.40
2018-07-03T20:28:12.242Z,22.30
2018-07-03T20:30:40.602Z,22.30
2018-07-03T20:33:08.972Z,22.20
2018-07-03T20:35:37.354Z,22.10
2018-07-03T20:38:07.034Z,22.00
2018-07-03T20:41:09.925Z,21.90
2018-07-03T20:43:40.157Z,21.90
2018-07-03T20:46:09.302Z,21.80
2018-07-03T20:48:37.754Z,21.70
2018-07-03T20:51:06.294Z,21.60
2018-07-03T20:53:34.708Z,21.50
2018-07-03T20:56:03.698Z,21.40
2018-07-03T20:58:32.060Z,21.40
2018-07-03T21:01:00.438Z,21.30
2018-07-03T21:03:28.783Z,21.20
2018-07-03T21:05:57.220Z,21.10
2018-07-03T21:08:25.669Z,21.00
2018-07-03T21:10:54.070Z,20.80
2018-07-03T21:13:23.074Z,20.70
2018-07-03T21:18:19.521Z,20.50
2018-07-03T21:23:15.950Z,20.20
2018-07-03T21:25:44.370Z,20.00
2018-07-03T21:28:12.724Z,19.90
2018-07-03T21:30:41.109Z,19.90
2018-07-03T21:35:37.512Z,19.90
2018-07-03T21:38:05.937Z,20.00
2018-07-03T21:43:02.381Z,20.10
2018-07-03T21:47:58.840Z,20.10
2018-07-03T21:52:55.467Z,20.20
2018-07-03T21:57:52.707Z,20.10
2018-07-03T22:00:36.787Z,20.10
2018-07-03T22:03:06.687Z,20.10
2018-07-03T22:05:35.216Z,20.00
2018-07-03T22:08:03.669Z,20.00
2018-07-03T22:10:32.540Z,19.90
2018-07-03T22:13:01.021Z,19.90
2018-07-03T22:15:30.018Z,19.80
2018-07-03T22:20:33.607Z,19.80
2018-07-03T22:23:02.000Z,19.70
2018-07-03T22:25:30.831Z,19.70
2018-07-03T22:27:59.201Z,19.60
2018-07-03T22:30:27.581Z,19.60
2018-07-03T22:32:55.920Z,19.50
2018-07-03T22:35:24.282Z,19.50
2018-07-03T22:37:52.657Z,19.40
2018-07-03T22:40:21.145Z,19.40
2018-07-03T22:42:49.525Z,19.40
2018-07-03T22:45:17.863Z,19.30
2018-07-03T22:47:46.219Z,19.30
2018-07-03T22:50:14.611Z,19.20
2018-07-03T22:52:42.991Z,19.10
2018-07-03T22:55:11.345Z,19.10
2018-07-03T22:57:39.773Z,19.00
2018-07-03T23:00:08.149Z,19.00
2018-07-03T23:02:36.573Z,18.90
2018-07-03T23:05:04.949Z,18.70
2018-07-03T23:07:33.307Z,18.70
2018-07-03T23:10:01.721Z,18.70
2018-07-03T23:12:30.131Z,18.60
2018-07-03T23:14:58.522Z,18.60
2018-07-03T23:19:55.036Z,18.50
2018-07-03T23:22:23.767Z,18.50
2018-07-03T23:24:52.170Z,18.50
2018-07-03T23:27:20.553Z,18.40
2018-07-03T23:29:48.952Z,18.40
2018-07-03T23:32:17.303Z,18.30
2018-07-03T23:34:45.694Z,18.30
2018-07-03T23:37:14.062Z,18.20
2018-07-03T23:39:42.412Z,18.20
2018-07-03T23:42:10.911Z,18.10
2018-07-03T23:44:39.237Z,18.10
2018-07-03T23:47:18.999Z,18.00
2018-07-03T23:49:58.504Z,18.00
2018-07-03T23:52:38.081Z,18.00
2018-07-03T23:55:17.491Z,17.90
2018-07-03T23:57:57.122Z,17.90
